Time;durP1;ratioP1;P1;durP2;ratioP2;P2;SDS_P1;SDS_P2;PMS_P1;PMS_P2;Temp;Humidity;BMP_temperature;BMP_pressure;BME280_temperature;BME280_humidity;BME280_pressure;Samples;Min_cycle;Max_cycle;Signal;HPM_P1;HPM_P2
2022/03/25 00:00:10;;;;;;;;;60.00;45.25;;;;;13.30;34.80;102373.34;5049976;28;45407;-63
2022/03/25 00:02:36;;;;;;;;;52.75;41.00;;;;;13.28;34.85;102371.63;5049502;28;45268;-64
2022/03/25 00:05:02;;;;;;;;;64.00;45.00;;;;;13.26;35.08;102373.41;5050972;28;46410;-63
2022/03/25 00:07:28;;;;;;;;;65.75;44.00;;;;;13.23;34.87;102376.94;5049625;28;46103;-63
2022/03/25 00:09:53;;;;;;;;;60.25;43.25;;;;;13.20;35.09;102379.53;5051060;28;45481;-62
2022/03/25 00:12:19;;;;;;;;;61.50;45.75;;;;;13.18;34.78;102375.22;5053361;28;45511;-62
2022/03/25 00:14:44;;;;;;;;;56.50;41.25;;;;;13.16;35.08;102382.19;5048196;28;46340;-63
2022/03/25 00:17:10;;;;;;;;;51.75;36.25;;;;;13.13;35.22;102383.09;5048733;28;45550;-63
2022/03/25 00:19:35;;;;;;;;;58.50;43.75;;;;;13.11;35.29;102382.25;5049635;28;45480;-63
2022/03/25 00:22:00;;;;;;;;;66.00;45.50;;;;;13.07;35.08;102372.72;5048666;28;45486;-63
2022/03/25 00:24:26;;;;;;;;;59.75;44.25;;;;;13.06;35.34;102381.44;5050946;28;46175;-65
2022/03/25 00:26:51;;;;;;;;;54.25;37.75;;;;;13.03;35.31;102374.53;5051167;28;45394;-65
2022/03/25 00:29:16;;;;;;;;;64.50;42.50;;;;;13.00;35.46;102371.91;5051399;28;45544;-64
2022/03/25 00:31:42;;;;;;;;;56.00;41.25;;;;;12.97;35.51;102373.69;5050180;28;45630;-65
2022/03/25 00:34:08;;;;;;;;;57.25;42.75;;;;;12.93;35.68;102374.63;5050500;28;46388;-65
2022/03/25 00:36:34;;;;;;;;;66.25;46.25;;;;;12.90;35.79;102380.75;5052368;28;45470;-65
2022/03/25 00:38:59;;;;;;;;;59.25;40.50;;;;;12.88;35.69;102377.28;5049203;28;45394;-65
2022/03/25 00:41:24;;;;;;;;;54.75;37.25;;;;;12.86;35.71;102372.97;5049970;28;45361;-65
2022/03/25 00:43:50;;;;;;;;;60.50;46.00;;;;;12.84;35.90;102379.97;5048506;28;45518;-64
2022/03/25 00:46:16;;;;;;;;;59.75;45.50;;;;;12.82;35.74;102373.91;5047288;28;45165;-64
2022/03/25 00:48:42;;;;;;;;;66.00;49.50;;;;;12.78;35.92;102378.25;5050402;28;45243;-64
2022/03/25 00:51:08;;;;;;;;;64.00;46.25;;;;;12.73;35.79;102369.63;5051118;28;45362;-65
2022/03/25 00:53:33;;;;;;;;;70.50;51.50;;;;;12.67;35.49;102367.94;5049274;28;45598;-65
2022/03/25 00:56:01;;;;;;;;;58.25;44.25;;;;;12.65;35.83;102366.25;5047065;28;45469;-65
2022/03/25 00:58:26;;;;;;;;;63.50;46.25;;;;;12.60;36.23;102371.47;5045223;28;45574;-66
2022/03/25 01:00:52;;;;;;;;;56.00;42.50;;;;;12.58;36.17;102369.75;5044798;28;45532;-67
2022/03/25 01:03:17;;;;;;;;;59.00;46.00;;;;;12.55;36.54;102372.41;5049988;28;45259;-66
2022/03/25 01:05:42;;;;;;;;;60.25;44.00;;;;;12.54;36.44;102374.16;5044771;28;46639;-66
2022/03/25 01:08:09;;;;;;;;;60.75;45.00;;;;;12.51;36.26;102368.09;5061335;28;45327;-66
2022/03/25 01:10:36;;;;;;;;;51.75;39.00;;;;;12.49;36.15;102362.91;5061161;28;45364;-66
2022/03/25 01:13:03;;;;;;;;;59.50;41.25;;;;;12.48;36.67;102366.41;5061041;28;45233;-66
2022/03/25 01:15:29;;;;;;;;;58.50;45.00;;;;;12.46;36.80;102366.41;5061049;28;45920;-67
2022/03/25 01:17:54;;;;;;;;;57.25;45.75;;;;;12.42;36.71;102359.50;5069638;28;45354;-66
2022/03/25 01:20:20;;;;;;;;;54.75;41.50;;;;;12.42;36.96;102359.50;5064076;28;45372;-66
2022/03/25 01:22:45;;;;;;;;;56.50;40.00;;;;;12.40;36.61;102358.63;5060837;28;45971;-67
2022/03/25 01:25:11;;;;;;;;;61.75;43.25;;;;;12.39;36.78;102361.25;5060943;28;45367;-66
2022/03/25 01:27:36;;;;;;;;;59.00;43.00;;;;;12.37;36.91;102352.56;5061002;28;45717;-66
2022/03/25 01:30:04;;;;;;;;;58.50;44.00;;;;;12.34;37.14;102348.25;5047228;28;45347;-66
2022/03/25 01:32:29;;;;;;;;;55.00;39.50;;;;;12.31;37.32;102347.44;5060818;28;46277;-67
2022/03/25 01:34:55;;;;;;;;;51.50;38.50;;;;;12.30;37.17;102345.69;5060516;28;45339;-64
2022/03/25 01:37:20;;;;;;;;;61.00;47.00;;;;;12.27;37.26;102344.00;5060710;28;45300;-65
2022/03/25 01:39:45;;;;;;;;;60.50;43.75;;;;;12.24;37.49;102340.56;5060570;28;45237;-64
2022/03/25 01:42:11;;;;;;;;;66.00;47.00;;;;;12.25;37.30;102348.34;5060656;28;45326;-65
2022/03/25 01:44:37;;;;;;;;;57.75;38.25;;;;;12.23;37.56;102349.25;5060552;28;45141;-65
2022/03/25 01:47:07;;;;;;;;;57.25;39.00;;;;;12.20;37.35;102337.09;5061042;28;45346;-65
2022/03/25 01:49:33;;;;;;;;;58.00;44.00;;;;;12.17;37.42;102337.97;5060541;28;45245;-65
2022/03/25 01:52:00;;;;;;;;;60.75;45.50;;;;;12.16;37.68;102340.59;5060499;28;46313;-65
2022/03/25 01:54:35;;;;;;;;;64.25;43.25;;;;;12.13;37.76;102336.28;5060137;28;45370;-65
2022/03/25 01:57:05;;;;;;;;;58.75;43.50;;;;;12.11;37.30;102335.44;5059883;28;45225;-65
2022/03/25 01:59:31;;;;;;;;;53.00;41.25;;;;;12.09;37.54;102328.50;5060264;28;45413;-65
2022/03/25 02:01:57;;;;;;;;;49.50;34.75;;;;;12.08;37.82;102334.59;5060401;28;45318;-65
2022/03/25 02:04:24;;;;;;;;;61.25;46.50;;;;;12.05;37.91;102332.88;5060351;28;45244;-66
2022/03/25 02:06:50;;;;;;;;;48.25;35.75;;;;;12.00;37.52;102328.56;5060355;28;45460;-65
2022/03/25 02:09:16;;;;;;;;;64.25;43.75;;;;;11.97;38.11;102320.78;5060218;28;45432;-66
2022/03/25 02:11:41;;;;;;;;;62.25;45.25;;;;;11.95;37.98;102323.41;5060221;28;46005;-66
2022/03/25 02:14:08;;;;;;;;;58.00;44.75;;;;;11.95;38.26;102318.19;5059927;28;45378;-67
2022/03/25 02:16:42;;;;;;;;;60.75;46.00;;;;;11.92;38.12;102330.38;5059359;28;45436;-68
2022/03/25 02:19:10;;;;;;;;;60.00;42.75;;;;;11.93;38.54;102327.75;5046615;28;45406;-67
2022/03/25 02:21:40;;;;;;;;;67.25;46.00;;;;;11.91;38.48;102329.50;5059116;28;45402;-67
2022/03/25 02:24:07;;;;;;;;;47.00;35.50;;;;;11.91;38.34;102331.25;5059885;28;45436;-65
2022/03/25 02:26:35;;;;;;;;;70.50;51.50;;;;;11.87;38.64;102320.00;5060241;28;45365;-67
2022/03/25 02:29:00;;;;;;;;;64.50;47.50;;;;;11.87;37.67;102325.22;5052978;28;46216;-67
2022/03/25 02:31:27;;;;;;;;;54.00;41.75;;;;;11.83;38.64;102332.19;5053187;28;45341;-67
2022/03/25 02:34:01;;;;;;;;;60.25;44.00;;;;;11.82;38.08;102335.66;5060055;28;45713;-68
2022/03/25 02:36:26;;;;;;;;;49.50;41.75;;;;;11.80;38.93;102333.94;5058629;28;45319;-68
2022/03/25 02:38:52;;;;;;;;;59.75;43.25;;;;;11.78;38.44;102328.72;5059892;28;45318;-68
2022/03/25 02:41:17;;;;;;;;;63.00;43.75;;;;;11.77;38.75;102331.31;5059535;28;45438;-67
2022/03/25 02:43:43;;;;;;;;;58.25;41.50;;;;;11.74;39.20;102332.19;5059728;28;45169;-66
2022/03/25 02:46:08;;;;;;;;;65.75;44.25;;;;;11.73;38.99;102332.22;5059631;28;45154;-67
2022/03/25 02:48:34;;;;;;;;;60.00;45.25;;;;;11.71;39.25;102333.97;5059681;28;45233;-67
2022/03/25 02:51:00;;;;;;;;;57.25;45.00;;;;;11.69;38.90;102327.91;5059193;28;46201;-69
2022/03/25 02:53:25;;;;;;;;;61.75;43.50;;;;;11.67;39.37;102327.06;5059757;28;45452;-69
2022/03/25 02:55:51;;;;;;;;;61.50;42.25;;;;;11.66;39.25;102335.75;5059255;28;45223;-70
2022/03/25 02:58:17;;;;;;;;;53.25;44.00;;;;;11.62;39.08;102329.69;5046139;28;45507;-71
2022/03/25 03:00:43;;;;;;;;;60.25;43.75;;;;;11.58;39.48;102335.78;5059412;28;46344;-70
2022/03/25 03:03:08;;;;;;;;;61.25;46.50;;;;;11.58;39.62;102339.25;5059675;28;45619;-71
2022/03/25 03:05:34;;;;;;;;;66.75;47.50;;;;;11.56;39.63;102338.38;5059443;28;45272;-71
2022/03/25 03:08:00;;;;;;;;;55.00;37.75;;;;;11.53;39.26;102340.16;5059552;28;45498;-71
2022/03/25 03:10:26;;;;;;;;;62.50;44.50;;;;;11.49;39.56;102333.25;5059341;28;45414;-68
2022/03/25 03:12:52;;;;;;;;;63.75;46.25;;;;;11.46;40.09;102333.25;5058515;28;45422;-69
2022/03/25 03:15:19;;;;;;;;;60.25;43.75;;;;;11.43;39.66;102338.50;5057340;28;45332;-69
2022/03/25 03:17:48;;;;;;;;;61.00;45.00;;;;;11.38;39.68;102335.03;5064006;28;45469;-69
2022/03/25 03:20:16;;;;;;;;;61.75;43.75;;;;;11.36;40.07;102340.25;5062693;28;45360;-69
2022/03/25 03:22:43;;;;;;;;;57.75;43.50;;;;;11.34;40.13;102339.38;5056803;28;45426;-69
2022/03/25 03:25:10;;;;;;;;;63.50;46.25;;;;;11.31;40.32;102338.53;5056940;28;45422;-69
2022/03/25 03:27:35;;;;;;;;;52.75;41.75;;;;;11.30;40.27;102340.28;5058992;28;45438;-68
2022/03/25 03:30:01;;;;;;;;;62.00;43.50;;;;;11.26;40.64;102336.84;5062238;28;46160;-68
2022/03/25 03:32:26;;;;;;;;;63.25;47.00;;;;;11.25;40.28;102339.44;5062894;28;45209;-70
2022/03/25 03:34:55;;;;;;;;;64.25;46.50;;;;;11.23;40.28;102336.84;5062724;28;45425;-72
2022/03/25 03:37:21;;;;;;;;;61.75;44.25;;;;;11.21;40.40;102327.28;5062601;28;45252;-68
2022/03/25 03:39:47;;;;;;;;;56.50;41.75;;;;;11.20;40.84;102330.78;5062391;28;45586;-68
2022/03/25 03:42:12;;;;;;;;;55.25;42.25;;;;;11.18;40.51;102328.19;5062662;28;45194;-68
2022/03/25 03:44:38;;;;;;;;;61.75;44.50;;;;;11.16;40.88;102329.06;5062528;28;45345;-68
2022/03/25 03:47:06;;;;;;;;;62.00;42.75;;;;;11.11;40.51;102325.63;5062671;28;45337;-68
2022/03/25 03:49:32;;;;;;;;;59.25;47.25;;;;;11.06;40.69;102320.44;5062332;28;46066;-68
2022/03/25 03:51:57;;;;;;;;;59.75;44.50;;;;;11.04;40.98;102330.00;5062332;28;45463;-68
2022/03/25 03:54:23;;;;;;;;;59.50;44.25;;;;;10.98;41.12;102317.00;5062205;28;45633;-68
2022/03/25 03:56:48;;;;;;;;;59.25;43.25;;;;;10.97;41.16;102323.06;5061524;28;45421;-68
2022/03/25 03:59:14;;;;;;;;;66.50;45.00;;;;;10.98;41.13;102330.00;5062049;28;46252;-63
2022/03/25 04:01:40;;;;;;;;;60.75;46.00;;;;;10.96;41.29;102326.53;5062391;28;45266;-63
2022/03/25 04:04:05;;;;;;;;;64.75;46.25;;;;;10.94;41.72;102331.75;5062341;28;45289;-64
2022/03/25 04:06:31;;;;;;;;;66.50;46.75;;;;;10.92;41.65;102332.63;5062327;28;45549;-64
2022/03/25 04:08:57;;;;;;;;;63.25;46.25;;;;;10.88;41.47;102323.13;5061757;28;46268;-64
2022/03/25 04:11:23;;;;;;;;;63.25;45.75;;;;;10.89;41.41;102330.03;5062221;28;45484;-64
2022/03/25 04:13:48;;;;;;;;;60.50;43.75;;;;;10.87;42.04;102330.06;5061985;28;45347;-64
2022/03/25 04:16:13;;;;;;;;;56.50;42.75;;;;;10.84;41.74;102337.00;5061664;28;45379;-64
2022/03/25 04:18:39;;;;;;;;;60.75;43.50;;;;;10.83;41.92;102330.06;5072935;28;46001;-64
2022/03/25 04:21:05;;;;;;;;;61.00;46.25;;;;;10.79;41.89;102325.72;5063201;28;45631;-64
2022/03/25 04:23:31;;;;;;;;;59.25;43.00;;;;;10.80;42.27;102330.91;5061714;28;45466;-64
2022/03/25 04:25:56;;;;;;;;;59.00;42.75;;;;;10.80;42.44;102348.25;5062271;28;45217;-64
2022/03/25 04:28:22;;;;;;;;;56.00;42.75;;;;;10.77;42.07;102333.53;5061242;28;45354;-64
2022/03/25 04:30:47;;;;;;;;;65.00;47.00;;;;;10.76;41.82;102338.75;5062151;28;45550;-64
2022/03/25 04:33:13;;;;;;;;;66.25;45.00;;;;;10.76;42.48;102338.75;5061825;28;45534;-64
2022/03/25 04:35:38;;;;;;;;;61.75;42.25;;;;;10.72;42.41;102340.50;5061811;28;45327;-64
2022/03/25 04:38:04;;;;;;;;;62.00;45.75;;;;;10.75;42.73;102339.59;5061314;28;46228;-64
2022/03/25 04:40:30;;;;;;;;;59.50;45.25;;;;;10.71;42.25;102343.97;5060862;28;45477;-64
2022/03/25 04:42:58;;;;;;;;;59.00;44.50;;;;;10.73;42.16;102349.16;5061652;28;45305;-64
2022/03/25 04:45:25;;;;;;;;;61.50;44.00;;;;;10.72;42.60;102347.41;5061810;28;45429;-64
2022/03/25 04:47:51;;;;;;;;;57.50;44.25;;;;;10.71;42.51;102348.28;5061421;28;47113;-65
2022/03/25 04:50:16;;;;;;;;;61.25;44.00;;;;;10.67;42.70;102355.25;5061532;28;45765;-67
2022/03/25 04:52:42;;;;;;;;;60.00;45.25;;;;;10.67;42.23;102357.84;5061364;28;45174;-68
2022/03/25 04:55:08;;;;;;;;;64.25;43.00;;;;;10.64;42.99;102357.84;5061476;28;45357;-68
2022/03/25 04:57:34;;;;;;;;;62.00;45.75;;;;;10.62;42.82;102363.06;5060169;28;46263;-68
2022/03/25 04:59:59;;;;;;;;;66.25;50.50;;;;;10.62;42.19;102363.06;5061453;28;45335;-67
2022/03/25 05:02:26;;;;;;;;;62.00;48.00;;;;;10.59;42.99;102359.56;5061389;28;45335;-66
2022/03/25 05:04:55;;;;;;;;;64.00;47.25;;;;;10.58;42.65;102365.63;5061328;28;45480;-66
2022/03/25 05:07:21;;;;;;;;;70.50;49.25;;;;;10.56;43.11;102364.78;5060871;28;46133;-66
2022/03/25 05:09:46;;;;;;;;;63.50;45.75;;;;;10.55;42.97;102365.66;5061273;28;45830;-67
2022/03/25 05:12:12;;;;;;;;;63.75;45.50;;;;;10.55;43.03;102373.44;5060996;28;45703;-67
2022/03/25 05:14:38;;;;;;;;;64.50;45.25;;;;;10.54;43.32;102369.97;5061149;28;45586;-67
2022/03/25 05:17:04;;;;;;;;;60.00;44.50;;;;;10.53;43.48;102368.25;5062150;28;45277;-67
2022/03/25 05:19:29;;;;;;;;;55.25;45.75;;;;;10.53;43.51;102372.59;5072204;28;45424;-67
2022/03/25 05:21:54;;;;;;;;;58.50;42.00;;;;;10.52;43.64;102370.84;5061801;28;45284;-67
2022/03/25 05:24:20;;;;;;;;;60.25;45.50;;;;;10.52;43.43;102373.44;5060947;28;45395;-67
2022/03/25 05:26:46;;;;;;;;;63.00;45.25;;;;;10.51;43.54;102375.19;5060349;28;46080;-67
2022/03/25 05:29:11;;;;;;;;;65.50;47.50;;;;;10.49;43.29;102370.84;5052284;28;45278;-67
2022/03/25 05:31:37;;;;;;;;;59.25;43.50;;;;;10.47;43.47;102373.47;5055875;28;45371;-67
2022/03/25 05:34:06;;;;;;;;;65.00;44.25;;;;;10.47;43.24;102368.28;5042630;28;45336;-69
2022/03/25 05:36:33;;;;;;;;;58.25;42.75;;;;;10.45;43.92;102377.81;5059848;28;45287;-67
2022/03/25 05:38:59;;;;;;;;;64.25;46.00;;;;;10.44;43.49;102376.06;5060714;28;45347;-67
2022/03/25 05:41:25;;;;;;;;;65.50;48.50;;;;;10.42;43.83;102379.53;5060513;28;45350;-67
2022/03/25 05:43:51;;;;;;;;;68.25;48.75;;;;;10.39;43.83;102375.19;5060571;28;45315;-67
2022/03/25 05:46:17;;;;;;;;;58.00;42.25;;;;;10.39;43.92;102377.78;5042183;28;46242;-66
2022/03/25 05:48:43;;;;;;;;;65.50;46.25;;;;;10.36;44.06;102375.19;5060707;28;45756;-63
2022/03/25 05:51:10;;;;;;;;;60.50;45.25;;;;;10.35;43.58;102378.66;5060204;28;45301;-64
2022/03/25 05:53:36;;;;;;;;;66.25;48.00;;;;;10.32;43.56;102374.34;5060371;28;45556;-64
2022/03/25 05:56:01;;;;;;;;;66.25;50.25;;;;;10.34;44.10;102379.53;5059729;28;45551;-64
2022/03/25 05:58:26;;;;;;;;;48.50;29.50;;;;;10.32;43.59;102387.31;5060296;28;45376;-65
2022/03/25 06:00:52;;;;;;;;;63.00;42.50;;;;;10.31;44.16;102382.13;5060168;28;45316;-65
2022/03/25 06:03:17;;;;;;;;;62.00;43.00;;;;;10.32;44.58;102391.66;5051356;28;46078;-63
2022/03/25 06:05:42;;;;;;;;;63.33;47.33;;;;;10.32;43.86;102392.53;5048677;28;45741;-64
2022/03/25 06:08:09;;;;;;;;;63.75;46.50;;;;;10.31;44.25;102390.78;5047186;28;45469;-65
2022/03/25 06:10:34;;;;;;;;;62.00;46.00;;;;;10.31;44.20;102395.13;5029999;28;45520;-64
2022/03/25 06:13:00;;;;;;;;;61.75;43.75;;;;;10.33;44.51;102404.66;5048327;28;45260;-65
2022/03/25 06:15:25;;;;;;;;;63.00;46.00;;;;;10.34;44.57;102398.59;5048213;28;45414;-65
2022/03/25 06:17:51;;;;;;;;;62.25;46.25;;;;;10.35;45.01;102395.13;5067905;28;45354;-65
2022/03/25 06:20:18;;;;;;;;;63.25;43.25;;;;;10.39;44.48;102400.31;5052458;28;45316;-64
2022/03/25 06:22:44;;;;;;;;;65.00;50.25;;;;;10.42;44.22;102406.41;5046183;28;45301;-64
2022/03/25 06:25:12;;;;;;;;;63.25;42.75;;;;;10.42;44.22;102406.41;5051791;28;46446;-64
2022/03/25 06:27:52;;;;;;;;;59.75;45.25;;;;;10.44;44.58;102409.88;5047132;28;45389;-64
2022/03/25 06:30:20;;;;;;;;;66.50;47.50;;;;;10.47;44.39;102415.06;5048648;28;45364;-64
2022/03/25 06:32:45;;;;;;;;;60.25;42.25;;;;;10.47;44.14;102415.06;5045029;28;45184;-61
2022/03/25 06:35:12;;;;;;;;;65.00;48.25;;;;;10.48;44.63;102416.78;5052642;28;46461;-66
2022/03/25 06:37:37;;;;;;;;;61.75;47.00;;;;;10.47;44.46;102412.44;5051687;28;45525;-68
2022/03/25 06:40:07;;;;;;;;;62.50;47.50;;;;;10.50;44.52;102415.03;5059728;28;45515;-67
2022/03/25 06:42:33;;;;;;;;;59.25;44.50;;;;;10.52;44.20;102415.91;5041373;28;45417;-67
2022/03/25 06:44:58;;;;;;;;;64.00;46.75;;;;;10.58;44.43;102417.63;5059197;28;46228;-68
2022/03/25 06:47:24;;;;;;;;;63.75;47.50;;;;;10.63;44.16;102421.97;5056294;28;45290;-64
2022/03/25 06:49:49;;;;;;;;;60.25;42.00;;;;;10.66;44.70;102419.38;5032146;28;45371;-71
2022/03/25 06:52:15;;;;;;;;;55.50;40.25;;;;;10.69;44.93;102421.09;5049280;28;45161;-68
2022/03/25 06:54:41;;;;;;;;;59.50;43.75;;;;;10.70;44.91;102429.78;5045440;28;45418;-71
2022/03/25 06:57:07;;;;;;;;;61.25;45.50;;;;;10.73;44.70;102434.97;5048304;28;45277;-68
2022/03/25 06:59:33;;;;;;;;;63.00;46.75;;;;;10.73;44.67;102427.16;5048069;28;45462;-69
2022/03/25 07:01:58;;;;;;;;;67.50;45.50;;;;;10.78;45.19;102430.63;5048284;28;45600;-63
2022/03/25 07:04:24;;;;;;;;;63.00;46.00;;;;;10.81;45.26;102436.69;5034383;28;48122;-63
2022/03/25 07:06:50;;;;;;;;;64.25;48.00;;;;;10.79;45.22;102433.22;5047824;28;45459;-62
2022/03/25 07:09:15;;;;;;;;;66.00;47.50;;;;;10.86;44.85;102436.69;5047506;28;45494;-75
2022/03/25 07:11:42;;;;;;;;;55.00;38.00;;;;;10.94;44.51;102442.72;5048816;28;45416;-74
2022/03/25 07:14:07;;;;;;;;;61.50;46.00;;;;;10.97;44.63;102440.97;5050281;28;46547;-65
2022/03/25 07:16:32;;;;;;;;;52.75;41.50;;;;;11.01;45.04;102443.56;5049183;28;45248;-69
2022/03/25 07:19:01;;;;;;;;;65.00;46.00;;;;;11.05;44.72;102438.38;5048448;28;45280;-71
2022/03/25 07:21:26;;;;;;;;;63.00;48.00;;;;;11.14;45.15;102445.28;5051390;28;45449;-64
2022/03/25 07:23:52;;;;;;;;;55.00;42.75;;;;;11.21;44.57;102453.09;5036546;28;48241;-68
2022/03/25 07:26:17;;;;;;;;;65.25;47.25;;;;;11.27;44.06;102444.41;5049554;28;45488;-65
2022/03/25 07:28:43;;;;;;;;;67.00;49.00;;;;;11.39;43.89;102448.69;5046758;28;45529;-64
2022/03/25 07:31:09;;;;;;;;;62.00;44.25;;;;;11.47;43.80;102439.13;5044219;28;45398;-73
2022/03/25 07:33:34;;;;;;;;;70.00;49.00;;;;;11.57;43.62;102446.00;5056707;28;45462;-67
2022/03/25 07:36:00;;;;;;;;;67.00;45.50;;;;;11.65;43.70;102448.59;5058896;28;45528;-68
2022/03/25 07:38:27;;;;;;;;;67.75;49.00;;;;;11.74;43.28;102451.16;5058405;28;45356;-68
2022/03/25 07:40:52;;;;;;;;;68.50;48.00;;;;;11.83;43.24;102452.00;5059020;28;45261;-68
2022/03/25 07:43:18;;;;;;;;;74.50;52.00;;;;;11.91;42.86;102451.09;5058250;28;45997;-69
2022/03/25 07:45:43;;;;;;;;;67.25;47.00;;;;;12.01;43.37;102458.84;5058855;28;45200;-68
2022/03/25 07:48:08;;;;;;;;;69.00;50.50;;;;;12.11;43.12;102454.44;5058646;28;45423;-69
2022/03/25 07:50:34;;;;;;;;;65.25;49.75;;;;;12.25;42.72;102456.97;5058739;28;45290;-67
2022/03/25 07:52:59;;;;;;;;;64.00;44.75;;;;;12.44;43.64;102461.19;5058285;28;45339;-63
2022/03/25 07:55:25;;;;;;;;;61.00;45.75;;;;;12.75;44.55;102464.38;5048856;28;45197;-49
2022/03/25 07:57:50;;;;;;;;;73.00;51.25;;;;;13.00;46.02;102458.03;5046148;28;45393;-49
2022/03/25 08:00:16;;;;;;;;;66.25;50.00;;;;;13.22;43.53;102457.88;5047368;28;45213;-50
2022/03/25 08:02:47;;;;;;;;;69.50;45.75;;;;;13.30;43.97;102464.72;5047241;28;46094;-50
2022/03/25 08:05:13;;;;;;;;;68.50;49.75;;;;;13.49;43.89;102468.00;5038232;28;45333;-49
2022/03/25 08:07:43;;;;;;;;;69.50;50.75;;;;;13.61;45.93;102466.97;5038172;28;45287;-51
2022/03/25 08:10:09;;;;;;;;;64.25;47.00;;;;;13.89;41.36;102472.72;5038376;28;45566;-50
2022/03/25 08:12:35;;;;;;;;;59.25;41.25;;;;;13.99;42.42;102472.56;5042961;28;45533;-49
2022/03/25 08:15:00;;;;;;;;;63.75;46.25;;;;;14.08;41.02;102471.56;5039821;28;45269;-50
2022/03/25 08:17:26;;;;;;;;;64.50;46.50;;;;;14.13;40.73;102461.91;5041542;28;45308;-49
2022/03/25 08:19:51;;;;;;;;;67.50;47.75;;;;;14.18;41.54;102472.28;5048105;28;45530;-50
2022/03/25 08:22:18;;;;;;;;;62.25;45.75;;;;;14.23;43.31;102468.75;5045367;28;45357;-51
2022/03/25 08:30:12;;;;;;;;;65.50;48.75;;;;;14.67;39.48;102468.94;5047872;28;45393;-66
2022/03/25 08:32:37;;;;;;;;;60.00;46.75;;;;;14.63;38.89;102477.75;5061979;28;45337;-65
2022/03/25 08:35:03;;;;;;;;;65.25;48.00;;;;;14.59;38.96;102472.53;5061449;28;45180;-64
2022/03/25 08:37:28;;;;;;;;;69.00;51.00;;;;;14.56;38.80;102469.13;5061359;28;45216;-64
2022/03/25 08:39:54;;;;;;;;;61.75;49.00;;;;;14.48;38.54;102473.63;5061521;28;45201;-65
2022/03/25 08:42:19;;;;;;;;;63.50;48.00;;;;;14.45;38.57;102473.69;5061590;28;45396;-64
2022/03/25 08:44:44;;;;;;;;;68.00;46.25;;;;;14.48;38.12;102474.47;5061147;28;45258;-67
2022/03/25 08:47:10;;;;;;;;;69.50;49.50;;;;;14.48;38.25;102474.47;5061694;28;45671;-66
2022/03/25 08:49:35;;;;;;;;;66.50;47.25;;;;;14.48;38.26;102477.09;5061614;28;45620;-65
2022/03/25 08:52:01;;;;;;;;;69.50;51.00;;;;;14.49;38.19;102476.22;5061103;28;45271;-67
2022/03/25 08:54:27;;;;;;;;;69.50;50.50;;;;;14.51;38.51;102471.81;5059410;28;45151;-64
2022/03/25 08:56:53;;;;;;;;;71.00;50.25;;;;;14.58;38.27;102477.81;5049943;28;45243;-65
2022/03/25 08:59:19;;;;;;;;;66.00;48.75;;;;;14.65;38.23;102471.59;5061513;28;45388;-64
2022/03/25 09:01:45;;;;;;;;;66.00;44.25;;;;;14.72;37.93;102469.72;5061000;28;45288;-65
2022/03/25 09:04:10;;;;;;;;;75.00;52.00;;;;;14.83;37.77;102476.53;5042966;28;45367;-66
2022/03/25 09:06:36;;;;;;;;;69.00;49.00;;;;;15.00;37.48;102475.34;5060860;28;45679;-63
2022/03/25 09:09:01;;;;;;;;;65.00;51.00;;;;;15.14;37.48;102481.19;5061098;28;45405;-63
2022/03/25 09:11:26;;;;;;;;;68.50;46.00;;;;;15.24;37.02;102477.53;5042987;28;46916;-63
2022/03/25 09:13:52;;;;;;;;;68.50;49.50;;;;;15.32;36.84;102479.97;5061189;28;45506;-64
2022/03/25 09:16:19;;;;;;;;;69.50;50.00;;;;;15.35;36.67;102478.16;5051854;28;45327;-64
2022/03/25 09:18:44;;;;;;;;;67.50;48.00;;;;;15.44;36.85;102474.50;5051998;28;45163;-64
2022/03/25 09:21:10;;;;;;;;;67.25;47.25;;;;;15.56;36.29;102471.63;5061676;28;47147;-64
2022/03/25 09:23:36;;;;;;;;;69.00;51.00;;;;;15.63;35.60;102468.03;5060466;28;45459;-66
2022/03/25 09:26:01;;;;;;;;;69.25;52.00;;;;;15.73;36.33;102472.19;5060346;28;45445;-67
2022/03/25 09:28:27;;;;;;;;;71.00;51.00;;;;;15.84;36.15;102469.34;5057655;28;45407;-66
2022/03/25 09:30:53;;;;;;;;;73.75;51.50;;;;;15.95;35.69;102472.56;5031617;28;47260;-66
2022/03/25 09:33:18;;;;;;;;;84.75;59.50;;;;;16.07;35.91;102472.31;5060631;28;45299;-66
2022/03/25 09:35:45;;;;;;;;;67.50;51.25;;;;;16.21;35.86;102471.09;5059729;28;45485;-66
2022/03/25 09:38:11;;;;;;;;;66.75;49.25;;;;;16.35;35.41;102466.41;5053659;28;45253;-63
2022/03/25 09:40:40;;;;;;;;;81.50;54.25;;;;;16.50;35.33;102462.56;5042208;28;46228;-64
2022/03/25 09:43:05;;;;;;;;;67.25;51.00;;;;;16.61;34.87;102471.88;5038952;28;45494;-65
2022/03/25 09:45:33;;;;;;;;;68.75;51.25;;;;;16.72;33.92;102464.63;5034226;28;45504;-63
2022/03/25 09:47:59;;;;;;;;;66.50;48.00;;;;;16.81;34.77;102462.66;5048960;28;45542;-65
2022/03/25 09:50:27;;;;;;;;;69.50;50.75;;;;;16.91;34.41;102465.03;5048439;28;45558;-62
2022/03/25 09:52:53;;;;;;;;;69.50;50.50;;;;;17.05;34.46;102472.53;5046948;28;45364;-64
2022/03/25 09:55:19;;;;;;;;;72.00;51.50;;;;;17.13;33.65;102465.31;5057111;28;45447;-62
2022/03/25 09:57:46;;;;;;;;;70.75;52.00;;;;;17.22;34.06;102467.69;5055337;28;45485;-62
2022/03/25 10:00:17;;;;;;;;;66.75;48.25;;;;;17.29;33.79;102465.75;5049773;28;45416;-62
2022/03/25 10:02:43;;;;;;;;;69.00;46.00;;;;;17.33;33.17;102465.63;5050454;28;45807;-62
2022/03/25 10:05:17;;;;;;;;;65.75;48.25;;;;;17.34;33.29;102459.44;5049034;28;45229;-62
2022/03/25 10:07:50;;;;;;;;;68.75;51.00;;;;;17.36;33.55;102462.03;5047793;28;45467;-63
2022/03/25 10:10:18;;;;;;;;;69.00;51.25;;;;;17.40;32.87;102461.03;5049251;28;46347;-62
2022/03/25 10:12:46;;;;;;;;;74.50;53.25;;;;;17.47;32.81;102461.75;5049192;28;45425;-63
2022/03/25 10:15:14;;;;;;;;;69.50;53.25;;;;;17.52;32.58;102452.81;5047852;28;45405;-63
2022/03/25 10:17:48;;;;;;;;;68.75;50.50;;;;;17.56;32.69;102454.44;5054139;28;45492;-62
2022/03/25 10:20:15;;;;;;;;;75.00;53.75;;;;;17.63;32.28;102449.88;5060192;28;46038;-61
2022/03/25 10:22:56;;;;;;;;;61.25;50.00;;;;;17.69;31.72;102457.59;5038353;28;45389;-59
2022/03/25 10:25:51;;;;;;;;;68.00;50.75;;;;;17.76;31.57;102447.75;5057219;28;45272;-61
2022/03/25 10:28:30;;;;;;;;;71.75;52.00;;;;;17.85;32.08;102453.63;5059172;28;45471;-61
2022/03/25 10:31:07;;;;;;;;;73.00;51.50;;;;;17.98;32.28;102450.59;5049660;28;46322;-61
2022/03/25 10:33:36;;;;;;;;;69.25;50.50;;;;;18.05;32.37;102452.13;5059329;28;45746;-61
2022/03/25 10:36:08;;;;;;;;;73.25;54.75;;;;;18.03;32.15;102454.81;5059881;28;45269;-60
2022/03/25 10:38:46;;;;;;;;;73.25;53.75;;;;;18.04;31.99;102451.28;5058415;28;45232;-60
2022/03/25 10:41:23;;;;;;;;;68.75;50.25;;;;;18.03;31.66;102453.97;5053022;28;46150;-60
2022/03/25 10:43:59;;;;;;;;;70.00;52.50;;;;;18.02;31.44;102446.94;5048076;28;45546;-60
2022/03/25 10:46:31;;;;;;;;;69.75;49.50;;;;;18.05;31.20;102446.88;5047209;28;45384;-59
2022/03/25 10:48:57;;;;;;;;;68.75;52.25;;;;;18.12;31.19;102449.25;5049390;28;45518;-59
2022/03/25 10:51:22;;;;;;;;;55.50;46.00;;;;;18.19;31.73;102452.53;5049058;28;45343;-59
2022/03/25 10:53:56;;;;;;;;;69.25;52.50;;;;;18.27;30.79;102449.69;5049547;28;45258;-60
2022/03/25 10:56:22;;;;;;;;;69.50;51.75;;;;;18.37;31.30;102446.69;5046448;28;45380;-60
2022/03/25 10:58:52;;;;;;;;;66.75;50.00;;;;;18.51;30.78;102448.88;5047714;28;45571;-59
2022/03/25 11:01:17;;;;;;;;;68.75;51.50;;;;;18.58;30.50;102452.16;5050016;28;45336;-59
2022/03/25 11:03:44;;;;;;;;;72.00;51.50;;;;;18.69;30.70;102457.97;5049479;28;45375;-58
2022/03/25 11:06:15;;;;;;;;;73.50;52.25;;;;;18.72;30.72;102448.19;5046829;28;45427;-59
2022/03/25 11:08:41;;;;;;;;;71.50;53.25;;;;;18.74;30.10;102450.75;5046144;28;45494;-59
2022/03/25 11:11:08;;;;;;;;;65.00;48.50;;;;;18.78;30.14;102444.47;5037090;28;48334;-60